sensor_id;sensor_type;location;lat;lon;timestamp;P1;durP1;ratioP1;P2;durP2;ratioP2
40691;SDS011;26377;53.344;14.886;2022-10-16T00:01:44;8.70;;;6.85;;
40691;SDS011;26377;53.344;14.886;2022-10-16T00:04:13;11.85;;;7.35;;
40691;SDS011;26377;53.344;14.886;2022-10-16T00:06:42;9.20;;;7.28;;
40691;SDS011;26377;53.344;14.886;2022-10-16T00:09:12;9.45;;;6.78;;
40691;SDS011;26377;53.344;14.886;2022-10-16T00:11:41;11.05;;;7.05;;
40691;SDS011;26377;53.344;14.886;2022-10-16T00:14:13;9.68;;;6.85;;
40691;SDS011;26377;53.344;14.886;2022-10-16T00:16:42;11.05;;;7.15;;
40691;SDS011;26377;53.344;14.886;2022-10-16T00:19:13;7.87;;;6.92;;
40691;SDS011;26377;53.344;14.886;2022-10-16T00:21:43;8.90;;;6.67;;
40691;SDS011;26377;53.344;14.886;2022-10-16T00:24:12;9.55;;;6.80;;
40691;SDS011;26377;53.344;14.886;2022-10-16T00:26:39;11.43;;;7.55;;
40691;SDS011;26377;53.344;14.886;2022-10-16T00:29:10;9.25;;;6.10;;
40691;SDS011;26377;53.344;14.886;2022-10-16T00:31:39;9.75;;;7.55;;
40691;SDS011;26377;53.344;14.886;2022-10-16T00:34:06;9.13;;;6.37;;
40691;SDS011;26377;53.344;14.886;2022-10-16T00:36:33;7.87;;;6.55;;
40691;SDS011;26377;53.344;14.886;2022-10-16T00:39:01;8.43;;;6.83;;
40691;SDS011;26377;53.344;14.886;2022-10-16T00:41:32;8.65;;;6.15;;
40691;SDS011;26377;53.344;14.886;2022-10-16T00:44:00;10.82;;;6.42;;
40691;SDS011;26377;53.344;14.886;2022-10-16T00:49:14;6.17;;;5.58;;
40691;SDS011;26377;53.344;14.886;2022-10-16T00:51:45;8.03;;;5.87;;
40691;SDS011;26377;53.344;14.886;2022-10-16T00:54:19;7.40;;;6.37;;
40691;SDS011;26377;53.344;14.886;2022-10-16T00:56:54;9.30;;;6.00;;
40691;SDS011;26377;53.344;14.886;2022-10-16T00:59:25;6.92;;;5.72;;
40691;SDS011;26377;53.344;14.886;2022-10-16T01:01:56;8.18;;;5.87;;
40691;SDS011;26377;53.344;14.886;2022-10-16T01:04:26;8.23;;;5.50;;
40691;SDS011;26377;53.344;14.886;2022-10-16T01:12:52;8.93;;;5.33;;
40691;SDS011;26377;53.344;14.886;2022-10-16T01:15:50;8.73;;;5.67;;
40691;SDS011;26377;53.344;14.886;2022-10-16T01:21:16;6.35;;;4.80;;
40691;SDS011;26377;53.344;14.886;2022-10-16T01:29:57;6.72;;;5.22;;
40691;SDS011;26377;53.344;14.886;2022-10-16T01:32:38;7.08;;;4.78;;
40691;SDS011;26377;53.344;14.886;2022-10-16T01:35:35;7.62;;;5.12;;
40691;SDS011;26377;53.344;14.886;2022-10-16T01:38:16;5.92;;;4.70;;
40691;SDS011;26377;53.344;14.886;2022-10-16T01:40:50;8.48;;;5.12;;
40691;SDS011;26377;53.344;14.886;2022-10-16T01:43:23;13.62;;;5.10;;
40691;SDS011;26377;53.344;14.886;2022-10-16T01:46:02;6.28;;;4.75;;
40691;SDS011;26377;53.344;14.886;2022-10-16T01:48:35;6.50;;;4.60;;
40691;SDS011;26377;53.344;14.886;2022-10-16T01:51:13;7.33;;;4.78;;
40691;SDS011;26377;53.344;14.886;2022-10-16T01:53:41;5.83;;;4.50;;
40691;SDS011;26377;53.344;14.886;2022-10-16T01:56:17;6.92;;;4.55;;
40691;SDS011;26377;53.344;14.886;2022-10-16T01:58:49;4.72;;;4.17;;
40691;SDS011;26377;53.344;14.886;2022-10-16T02:01:30;6.50;;;4.15;;
40691;SDS011;26377;53.344;14.886;2022-10-16T02:04:03;5.65;;;4.40;;
40691;SDS011;26377;53.344;14.886;2022-10-16T02:06:41;7.85;;;4.75;;
40691;SDS011;26377;53.344;14.886;2022-10-16T02:09:08;6.22;;;4.15;;
40691;SDS011;26377;53.344;14.886;2022-10-16T02:11:37;6.67;;;4.60;;
40691;SDS011;26377;53.344;14.886;2022-10-16T02:14:07;13.75;;;4.92;;
40691;SDS011;26377;53.344;14.886;2022-10-16T02:16:40;7.08;;;4.22;;
40691;SDS011;26377;53.344;14.886;2022-10-16T02:19:14;6.05;;;4.03;;
40691;SDS011;26377;53.344;14.886;2022-10-16T02:21:58;11.12;;;4.25;;
40691;SDS011;26377;53.344;14.886;2022-10-16T02:24:49;4.37;;;3.70;;
40691;SDS011;26377;53.344;14.886;2022-10-16T02:27:32;8.43;;;4.28;;
40691;SDS011;26377;53.344;14.886;2022-10-16T02:30:02;8.70;;;3.95;;
40691;SDS011;26377;53.344;14.886;2022-10-16T02:32:47;6.90;;;3.98;;
40691;SDS011;26377;53.344;14.886;2022-10-16T02:35:19;7.67;;;4.00;;
40691;SDS011;26377;53.344;14.886;2022-10-16T02:37:49;5.97;;;4.20;;
40691;SDS011;26377;53.344;14.886;2022-10-16T02:40:20;5.70;;;4.03;;
40691;SDS011;26377;53.344;14.886;2022-10-16T02:42:50;7.78;;;4.37;;
40691;SDS011;26377;53.344;14.886;2022-10-16T02:45:18;8.03;;;4.35;;
40691;SDS011;26377;53.344;14.886;2022-10-16T02:47:46;5.37;;;3.77;;
40691;SDS011;26377;53.344;14.886;2022-10-16T02:50:16;6.00;;;4.12;;
40691;SDS011;26377;53.344;14.886;2022-10-16T02:52:43;6.17;;;4.00;;
40691;SDS011;26377;53.344;14.886;2022-10-16T02:55:10;6.08;;;4.30;;
40691;SDS011;26377;53.344;14.886;2022-10-16T02:57:38;4.67;;;3.52;;
40691;SDS011;26377;53.344;14.886;2022-10-16T03:00:08;6.95;;;4.20;;
40691;SDS011;26377;53.344;14.886;2022-10-16T03:02:38;8.23;;;4.12;;
40691;SDS011;26377;53.344;14.886;2022-10-16T03:05:07;7.37;;;4.70;;
40691;SDS011;26377;53.344;14.886;2022-10-16T03:07:36;5.62;;;3.80;;
40691;SDS011;26377;53.344;14.886;2022-10-16T03:10:06;5.55;;;3.92;;
40691;SDS011;26377;53.344;14.886;2022-10-16T03:12:37;4.87;;;4.12;;
40691;SDS011;26377;53.344;14.886;2022-10-16T03:15:06;5.28;;;4.50;;
40691;SDS011;26377;53.344;14.886;2022-10-16T03:17:37;6.67;;;4.00;;
40691;SDS011;26377;53.344;14.886;2022-10-16T03:20:05;10.13;;;4.40;;
40691;SDS011;26377;53.344;14.886;2022-10-16T03:22:34;5.95;;;3.98;;
40691;SDS011;26377;53.344;14.886;2022-10-16T03:25:05;4.45;;;3.33;;
40691;SDS011;26377;53.344;14.886;2022-10-16T03:27:33;4.90;;;3.72;;
40691;SDS011;26377;53.344;14.886;2022-10-16T03:30:01;5.72;;;3.92;;
40691;SDS011;26377;53.344;14.886;2022-10-16T03:32:28;5.33;;;4.03;;
40691;SDS011;26377;53.344;14.886;2022-10-16T03:34:57;8.63;;;3.72;;
40691;SDS011;26377;53.344;14.886;2022-10-16T03:37:30;4.40;;;3.83;;
40691;SDS011;26377;53.344;14.886;2022-10-16T03:39:57;6.50;;;4.22;;
40691;SDS011;26377;53.344;14.886;2022-10-16T03:42:27;6.75;;;4.50;;
40691;SDS011;26377;53.344;14.886;2022-10-16T03:44:56;5.80;;;3.98;;
40691;SDS011;26377;53.344;14.886;2022-10-16T03:47:23;7.15;;;3.65;;
40691;SDS011;26377;53.344;14.886;2022-10-16T03:49:52;6.00;;;4.30;;
40691;SDS011;26377;53.344;14.886;2022-10-16T03:52:19;6.30;;;3.70;;
40691;SDS011;26377;53.344;14.886;2022-10-16T03:54:48;5.17;;;3.67;;
40691;SDS011;26377;53.344;14.886;2022-10-16T03:57:15;4.33;;;3.20;;
40691;SDS011;26377;53.344;14.886;2022-10-16T03:59:44;6.75;;;3.80;;
40691;SDS011;26377;53.344;14.886;2022-10-16T04:02:11;5.45;;;3.60;;
40691;SDS011;26377;53.344;14.886;2022-10-16T04:04:41;5.25;;;3.72;;
40691;SDS011;26377;53.344;14.886;2022-10-16T04:07:10;5.45;;;3.90;;
40691;SDS011;26377;53.344;14.886;2022-10-16T04:09:39;5.75;;;3.33;;
40691;SDS011;26377;53.344;14.886;2022-10-16T04:12:06;3.83;;;3.12;;
40691;SDS011;26377;53.344;14.886;2022-10-16T04:14:33;4.67;;;3.58;;
40691;SDS011;26377;53.344;14.886;2022-10-16T04:17:04;5.08;;;3.62;;
40691;SDS011;26377;53.344;14.886;2022-10-16T04:19:31;7.05;;;3.45;;
40691;SDS011;26377;53.344;14.886;2022-10-16T04:21:58;4.22;;;3.35;;
40691;SDS011;26377;53.344;14.886;2022-10-16T04:24:25;5.72;;;3.90;;
40691;SDS011;26377;53.344;14.886;2022-10-16T04:26:54;5.58;;;3.62;;
40691;SDS011;26377;53.344;14.886;2022-10-16T04:29:21;7.67;;;3.77;;
40691;SDS011;26377;53.344;14.886;2022-10-16T04:31:52;3.33;;;2.90;;
40691;SDS011;26377;53.344;14.886;2022-10-16T04:34:24;6.72;;;3.55;;
40691;SDS011;26377;53.344;14.886;2022-10-16T04:36:53;5.60;;;3.05;;
40691;SDS011;26377;53.344;14.886;2022-10-16T04:39:22;5.47;;;3.12;;
40691;SDS011;26377;53.344;14.886;2022-10-16T04:41:49;4.53;;;3.50;;
40691;SDS011;26377;53.344;14.886;2022-10-16T04:44:17;5.58;;;3.12;;
40691;SDS011;26377;53.344;14.886;2022-10-16T04:46:49;6.55;;;3.22;;
40691;SDS011;26377;53.344;14.886;2022-10-16T04:49:17;4.45;;;3.00;;
40691;SDS011;26377;53.344;14.886;2022-10-16T04:51:45;4.55;;;2.90;;
40691;SDS011;26377;53.344;14.886;2022-10-16T04:54:12;4.85;;;3.10;;
40691;SDS011;26377;53.344;14.886;2022-10-16T04:56:42;5.83;;;3.00;;
40691;SDS011;26377;53.344;14.886;2022-10-16T04:59:14;4.17;;;3.08;;
40691;SDS011;26377;53.344;14.886;2022-10-16T05:01:42;3.72;;;3.00;;
40691;SDS011;26377;53.344;14.886;2022-10-16T05:04:10;4.03;;;2.87;;
40691;SDS011;26377;53.344;14.886;2022-10-16T05:06:38;4.62;;;2.85;;
40691;SDS011;26377;53.344;14.886;2022-10-16T05:09:07;7.30;;;2.72;;
40691;SDS011;26377;53.344;14.886;2022-10-16T05:11:35;5.20;;;2.92;;
40691;SDS011;26377;53.344;14.886;2022-10-16T05:14:04;4.65;;;2.90;;
40691;SDS011;26377;53.344;14.886;2022-10-16T05:16:31;3.58;;;2.85;;
40691;SDS011;26377;53.344;14.886;2022-10-16T05:19:00;5.78;;;2.85;;
40691;SDS011;26377;53.344;14.886;2022-10-16T05:21:31;4.22;;;3.12;;
40691;SDS011;26377;53.344;14.886;2022-10-16T05:23:58;4.87;;;3.37;;
40691;SDS011;26377;53.344;14.886;2022-10-16T05:26:25;6.30;;;2.50;;
40691;SDS011;26377;53.344;14.886;2022-10-16T05:28:54;4.83;;;2.77;;
40691;SDS011;26377;53.344;14.886;2022-10-16T05:31:21;7.58;;;3.15;;
40691;SDS011;26377;53.344;14.886;2022-10-16T05:33:50;5.75;;;2.83;;
40691;SDS011;26377;53.344;14.886;2022-10-16T05:36:21;5.87;;;2.95;;
40691;SDS011;26377;53.344;14.886;2022-10-16T05:38:50;3.10;;;2.50;;
40691;SDS011;26377;53.344;14.886;2022-10-16T05:41:20;5.08;;;3.20;;
40691;SDS011;26377;53.344;14.886;2022-10-16T05:43:49;6.33;;;2.77;;
40691;SDS011;26377;53.344;14.886;2022-10-16T05:46:18;4.20;;;2.87;;
40691;SDS011;26377;53.344;14.886;2022-10-16T05:48:51;4.75;;;2.70;;
40691;SDS011;26377;53.344;14.886;2022-10-16T05:51:22;3.67;;;2.47;;
40691;SDS011;26377;53.344;14.886;2022-10-16T05:53:49;4.28;;;3.00;;
40691;SDS011;26377;53.344;14.886;2022-10-16T05:56:20;4.97;;;3.00;;
40691;SDS011;26377;53.344;14.886;2022-10-16T05:58:53;3.90;;;2.70;;
40691;SDS011;26377;53.344;14.886;2022-10-16T06:01:22;4.45;;;2.70;;
40691;SDS011;26377;53.344;14.886;2022-10-16T06:03:52;3.70;;;2.65;;
40691;SDS011;26377;53.344;14.886;2022-10-16T06:06:27;4.17;;;2.62;;
40691;SDS011;26377;53.344;14.886;2022-10-16T06:08:57;5.17;;;2.75;;
40691;SDS011;26377;53.344;14.886;2022-10-16T06:11:26;5.65;;;2.92;;
40691;SDS011;26377;53.344;14.886;2022-10-16T06:14:00;6.35;;;2.87;;
40691;SDS011;26377;53.344;14.886;2022-10-16T06:16:32;5.10;;;3.17;;
40691;SDS011;26377;53.344;14.886;2022-10-16T06:19:02;4.17;;;2.98;;
40691;SDS011;26377;53.344;14.886;2022-10-16T06:21:32;5.85;;;3.35;;
40691;SDS011;26377;53.344;14.886;2022-10-16T06:24:02;6.12;;;3.33;;
40691;SDS011;26377;53.344;14.886;2022-10-16T06:26:31;4.22;;;2.83;;
40691;SDS011;26377;53.344;14.886;2022-10-16T06:28:59;4.85;;;2.90;;
40691;SDS011;26377;53.344;14.886;2022-10-16T06:31:28;4.62;;;2.87;;
40691;SDS011;26377;53.344;14.886;2022-10-16T06:34:01;5.53;;;3.17;;
40691;SDS011;26377;53.344;14.886;2022-10-16T06:36:29;3.25;;;2.50;;
40691;SDS011;26377;53.344;14.886;2022-10-16T06:39:00;4.45;;;2.80;;
40691;SDS011;26377;53.344;14.886;2022-10-16T06:41:31;4.35;;;2.70;;
40691;SDS011;26377;53.344;14.886;2022-10-16T06:44:19;6.12;;;2.70;;
40691;SDS011;26377;53.344;14.886;2022-10-16T06:46:48;5.58;;;2.30;;
40691;SDS011;26377;53.344;14.886;2022-10-16T06:49:19;3.77;;;2.30;;
40691;SDS011;26377;53.344;14.886;2022-10-16T06:51:48;3.75;;;2.30;;
40691;SDS011;26377;53.344;14.886;2022-10-16T06:54:19;5.05;;;2.58;;
40691;SDS011;26377;53.344;14.886;2022-10-16T06:56:46;4.65;;;2.30;;
40691;SDS011;26377;53.344;14.886;2022-10-16T06:59:14;4.95;;;2.67;;
40691;SDS011;26377;53.344;14.886;2022-10-16T07:01:44;3.72;;;2.62;;
40691;SDS011;26377;53.344;14.886;2022-10-16T07:04:12;4.37;;;2.77;;
40691;SDS011;26377;53.344;14.886;2022-10-16T07:06:41;5.00;;;2.60;;
40691;SDS011;26377;53.344;14.886;2022-10-16T07:09:10;7.67;;;2.47;;
40691;SDS011;26377;53.344;14.886;2022-10-16T07:11:40;4.70;;;2.65;;
40691;SDS011;26377;53.344;14.886;2022-10-16T07:14:15;5.10;;;2.40;;
40691;SDS011;26377;53.344;14.886;2022-10-16T07:16:46;5.92;;;2.52;;
40691;SDS011;26377;53.344;14.886;2022-10-16T07:19:16;5.33;;;2.42;;
40691;SDS011;26377;53.344;14.886;2022-10-16T07:21:44;4.03;;;2.35;;
40691;SDS011;26377;53.344;14.886;2022-10-16T07:24:14;6.62;;;2.10;;
40691;SDS011;26377;53.344;14.886;2022-10-16T07:26:46;4.95;;;2.15;;
40691;SDS011;26377;53.344;14.886;2022-10-16T07:29:17;5.83;;;2.35;;
40691;SDS011;26377;53.344;14.886;2022-10-16T07:31:49;4.60;;;2.70;;
40691;SDS011;26377;53.344;14.886;2022-10-16T07:34:16;4.03;;;2.83;;
40691;SDS011;26377;53.344;14.886;2022-10-16T07:36:48;4.50;;;3.17;;
40691;SDS011;26377;53.344;14.886;2022-10-16T07:39:17;5.62;;;2.30;;
40691;SDS011;26377;53.344;14.886;2022-10-16T07:41:44;5.40;;;2.83;;
40691;SDS011;26377;53.344;14.886;2022-10-16T07:44:15;6.22;;;2.40;;
40691;SDS011;26377;53.344;14.886;2022-10-16T07:46:42;4.15;;;1.90;;
40691;SDS011;26377;53.344;14.886;2022-10-16T07:49:13;3.30;;;1.90;;
40691;SDS011;26377;53.344;14.886;2022-10-16T07:51:42;2.42;;;1.90;;
40691;SDS011;26377;53.344;14.886;2022-10-16T07:54:10;5.80;;;2.08;;
40691;SDS011;26377;53.344;14.886;2022-10-16T07:56:38;4.90;;;2.20;;
40691;SDS011;26377;53.344;14.886;2022-10-16T07:59:05;5.20;;;2.30;;
40691;SDS011;26377;53.344;14.886;2022-10-16T08:01:34;5.42;;;2.15;;
40691;SDS011;26377;53.344;14.886;2022-10-16T08:04:03;4.87;;;2.10;;
40691;SDS011;26377;53.344;14.886;2022-10-16T08:06:34;4.15;;;1.80;;
40691;SDS011;26377;53.344;14.886;2022-10-16T08:09:04;4.65;;;2.27;;
40691;SDS011;26377;53.344;14.886;2022-10-16T08:11:32;4.08;;;1.72;;
40691;SDS011;26377;53.344;14.886;2022-10-16T08:14:04;3.25;;;1.90;;
40691;SDS011;26377;53.344;14.886;2022-10-16T08:16:31;3.00;;;2.20;;
40691;SDS011;26377;53.344;14.886;2022-10-16T08:18:58;4.15;;;2.10;;
40691;SDS011;26377;53.344;14.886;2022-10-16T08:21:31;4.22;;;1.82;;
40691;SDS011;26377;53.344;14.886;2022-10-16T08:24:02;3.17;;;2.30;;
40691;SDS011;26377;53.344;14.886;2022-10-16T08:26:30;4.20;;;1.85;;
40691;SDS011;26377;53.344;14.886;2022-10-16T08:29:01;3.27;;;1.67;;
40691;SDS011;26377;53.344;14.886;2022-10-16T08:31:31;5.37;;;2.00;;
40691;SDS011;26377;53.344;14.886;2022-10-16T08:34:00;2.87;;;1.87;;
40691;SDS011;26377;53.344;14.886;2022-10-16T08:36:28;6.00;;;1.90;;
40691;SDS011;26377;53.344;14.886;2022-10-16T08:38:56;3.05;;;1.92;;
40691;SDS011;26377;53.344;14.886;2022-10-16T08:47:32;3.55;;;1.62;;
40691;SDS011;26377;53.344;14.886;2022-10-16T08:50:08;4.85;;;1.55;;
40691;SDS011;26377;53.344;14.886;2022-10-16T08:52:40;5.28;;;1.77;;
40691;SDS011;26377;53.344;14.886;2022-10-16T08:55:22;4.10;;;1.52;;
40691;SDS011;26377;53.344;14.886;2022-10-16T08:58:13;4.20;;;1.92;;
40691;SDS011;26377;53.344;14.886;2022-10-16T09:00:46;4.72;;;1.72;;
40691;SDS011;26377;53.344;14.886;2022-10-16T09:03:35;2.87;;;1.77;;
40691;SDS011;26377;53.344;14.886;2022-10-16T09:12:22;3.30;;;1.72;;
40691;SDS011;26377;53.344;14.886;2022-10-16T09:17:37;3.00;;;1.80;;
40691;SDS011;26377;53.344;14.886;2022-10-16T09:23:23;5.45;;;1.67;;
40691;SDS011;26377;53.344;14.886;2022-10-16T09:25:56;7.50;;;1.77;;
40691;SDS011;26377;53.344;14.886;2022-10-16T09:28:25;3.12;;;1.80;;
40691;SDS011;26377;53.344;14.886;2022-10-16T09:30:54;2.98;;;1.65;;
40691;SDS011;26377;53.344;14.886;2022-10-16T09:35:56;4.25;;;1.62;;
40691;SDS011;26377;53.344;14.886;2022-10-16T09:38:34;4.55;;;1.62;;
40691;SDS011;26377;53.344;14.886;2022-10-16T09:41:16;2.95;;;1.55;;
40691;SDS011;26377;53.344;14.886;2022-10-16T09:46:34;4.70;;;1.70;;
40691;SDS011;26377;53.344;14.886;2022-10-16T09:49:05;6.15;;;2.02;;
40691;SDS011;26377;53.344;14.886;2022-10-16T09:51:42;5.22;;;1.82;;
40691;SDS011;26377;53.344;14.886;2022-10-16T09:56:48;7.03;;;1.98;;
40691;SDS011;26377;53.344;14.886;2022-10-16T09:59:18;7.00;;;1.52;;
40691;SDS011;26377;53.344;14.886;2022-10-16T10:01:53;5.50;;;1.62;;
40691;SDS011;26377;53.344;14.886;2022-10-16T10:04:24;4.12;;;1.50;;
40691;SDS011;26377;53.344;14.886;2022-10-16T10:06:53;5.83;;;1.55;;
40691;SDS011;26377;53.344;14.886;2022-10-16T10:09:24;4.28;;;1.60;;
40691;SDS011;26377;53.344;14.886;2022-10-16T10:11:57;9.33;;;2.67;;
40691;SDS011;26377;53.344;14.886;2022-10-16T10:17:25;3.98;;;1.77;;
40691;SDS011;26377;53.344;14.886;2022-10-16T10:19:59;1.92;;;1.35;;
40691;SDS011;26377;53.344;14.886;2022-10-16T10:22:40;4.03;;;1.60;;
40691;SDS011;26377;53.344;14.886;2022-10-16T10:27:56;3.00;;;1.52;;
40691;SDS011;26377;53.344;14.886;2022-10-16T10:36:27;2.90;;;1.60;;
40691;SDS011;26377;53.344;14.886;2022-10-16T10:39:20;4.67;;;1.60;;
40691;SDS011;26377;53.344;14.886;2022-10-16T10:50:51;5.08;;;1.60;;
40691;SDS011;26377;53.344;14.886;2022-10-16T11:08:02;7.20;;;1.60;;
40691;SDS011;26377;53.344;14.886;2022-10-16T11:10:53;4.58;;;1.52;;
40691;SDS011;26377;53.344;14.886;2022-10-16T11:16:15;4.70;;;1.67;;
40691;SDS011;26377;53.344;14.886;2022-10-16T11:30:57;5.10;;;1.50;;
40691;SDS011;26377;53.344;14.886;2022-10-16T11:41:49;3.92;;;1.30;;
40691;SDS011;26377;53.344;14.886;2022-10-16T11:47:35;3.70;;;1.67;;
40691;SDS011;26377;53.344;14.886;2022-10-16T11:50:23;3.25;;;1.57;;
40691;SDS011;26377;53.344;14.886;2022-10-16T11:53:03;2.20;;;1.40;;
40691;SDS011;26377;53.344;14.886;2022-10-16T11:55:39;6.85;;;1.80;;
40691;SDS011;26377;53.344;14.886;2022-10-16T12:09:40;3.92;;;1.50;;
40691;SDS011;26377;53.344;14.886;2022-10-16T12:12:24;3.58;;;1.60;;
40691;SDS011;26377;53.344;14.886;2022-10-16T12:17:49;2.60;;;1.20;;
40691;SDS011;26377;53.344;14.886;2022-10-16T12:20:25;3.90;;;1.72;;
40691;SDS011;26377;53.344;14.886;2022-10-16T12:22:59;4.80;;;1.40;;
40691;SDS011;26377;53.344;14.886;2022-10-16T12:25:33;4.10;;;1.35;;
40691;SDS011;26377;53.344;14.886;2022-10-16T12:28:06;4.00;;;1.37;;
40691;SDS011;26377;53.344;14.886;2022-10-16T12:30:54;2.10;;;1.40;;
40691;SDS011;26377;53.344;14.886;2022-10-16T12:33:35;6.35;;;1.50;;
40691;SDS011;26377;53.344;14.886;2022-10-16T12:36:00;3.77;;;1.62;;
40691;SDS011;26377;53.344;14.886;2022-10-16T12:41:38;3.25;;;1.30;;
40691;SDS011;26377;53.344;14.886;2022-10-16T12:51:51;4.35;;;1.22;;
40691;SDS011;26377;53.344;14.886;2022-10-16T12:54:26;1.70;;;1.10;;
40691;SDS011;26377;53.344;14.886;2022-10-16T13:00:04;3.75;;;1.20;;
40691;SDS011;26377;53.344;14.886;2022-10-16T13:08:27;2.55;;;1.07;;
40691;SDS011;26377;53.344;14.886;2022-10-16T13:20:00;2.83;;;1.02;;
40691;SDS011;26377;53.344;14.886;2022-10-16T13:25:54;2.08;;;1.05;;
40691;SDS011;26377;53.344;14.886;2022-10-16T13:28:45;1.52;;;1.00;;
40691;SDS011;26377;53.344;14.886;2022-10-16T13:31:15;1.55;;;0.93;;
40691;SDS011;26377;53.344;14.886;2022-10-16T13:33:47;3.70;;;0.93;;
40691;SDS011;26377;53.344;14.886;2022-10-16T13:36:22;3.37;;;1.00;;
40691;SDS011;26377;53.344;14.886;2022-10-16T13:39:06;1.92;;;1.07;;
40691;SDS011;26377;53.344;14.886;2022-10-16T13:41:41;1.98;;;1.05;;
40691;SDS011;26377;53.344;14.886;2022-10-16T13:44:14;3.40;;;1.00;;
40691;SDS011;26377;53.344;14.886;2022-10-16T13:46:43;2.17;;;1.00;;
40691;SDS011;26377;53.344;14.886;2022-10-16T13:49:13;3.12;;;1.00;;
40691;SDS011;26377;53.344;14.886;2022-10-16T13:51:56;2.72;;;1.02;;
40691;SDS011;26377;53.344;14.886;2022-10-16T13:54:27;2.37;;;1.02;;
40691;SDS011;26377;53.344;14.886;2022-10-16T13:56:55;1.25;;;0.90;;
40691;SDS011;26377;53.344;14.886;2022-10-16T13:59:25;2.25;;;1.27;;
40691;SDS011;26377;53.344;14.886;2022-10-16T14:01:55;2.75;;;0.90;;
40691;SDS011;26377;53.344;14.886;2022-10-16T14:04:29;2.45;;;0.93;;
40691;SDS011;26377;53.344;14.886;2022-10-16T14:07:00;2.50;;;1.00;;
40691;SDS011;26377;53.344;14.886;2022-10-16T14:11:59;3.72;;;1.10;;
40691;SDS011;26377;53.344;14.886;2022-10-16T14:14:34;8.93;;;1.40;;
40691;SDS011;26377;53.344;14.886;2022-10-16T14:17:22;1.90;;;1.00;;
40691;SDS011;26377;53.344;14.886;2022-10-16T14:19:57;4.85;;;1.00;;
40691;SDS011;26377;53.344;14.886;2022-10-16T14:22:35;2.12;;;0.80;;
40691;SDS011;26377;53.344;14.886;2022-10-16T14:27:57;3.58;;;0.80;;
40691;SDS011;26377;53.344;14.886;2022-10-16T14:30:33;1.37;;;0.72;;
40691;SDS011;26377;53.344;14.886;2022-10-16T14:33:18;1.90;;;0.77;;
40691;SDS011;26377;53.344;14.886;2022-10-16T14:36:01;2.80;;;1.00;;
40691;SDS011;26377;53.344;14.886;2022-10-16T14:38:41;3.12;;;0.85;;
40691;SDS011;26377;53.344;14.886;2022-10-16T14:41:14;2.30;;;0.78;;
40691;SDS011;26377;53.344;14.886;2022-10-16T14:43:42;2.10;;;0.80;;
40691;SDS011;26377;53.344;14.886;2022-10-16T14:48:50;1.67;;;0.87;;
40691;SDS011;26377;53.344;14.886;2022-10-16T14:51:26;1.85;;;0.90;;
40691;SDS011;26377;53.344;14.886;2022-10-16T14:53:55;3.22;;;0.90;;
40691;SDS011;26377;53.344;14.886;2022-10-16T14:56:23;2.67;;;1.10;;
40691;SDS011;26377;53.344;14.886;2022-10-16T14:58:56;3.67;;;0.88;;
40691;SDS011;26377;53.344;14.886;2022-10-16T15:01:24;2.25;;;0.93;;
40691;SDS011;26377;53.344;14.886;2022-10-16T15:03:52;1.57;;;1.02;;
40691;SDS011;26377;53.344;14.886;2022-10-16T15:06:22;5.45;;;0.95;;
40691;SDS011;26377;53.344;14.886;2022-10-16T15:08:50;3.95;;;1.30;;
40691;SDS011;26377;53.344;14.886;2022-10-16T15:11:18;4.33;;;1.10;;
40691;SDS011;26377;53.344;14.886;2022-10-16T15:13:46;5.37;;;1.15;;
40691;SDS011;26377;53.344;14.886;2022-10-16T15:16:14;2.90;;;1.10;;
40691;SDS011;26377;53.344;14.886;2022-10-16T15:18:45;3.37;;;1.10;;
40691;SDS011;26377;53.344;14.886;2022-10-16T15:21:20;2.52;;;1.20;;
40691;SDS011;26377;53.344;14.886;2022-10-16T15:23:57;2.87;;;1.40;;
40691;SDS011;26377;53.344;14.886;2022-10-16T15:26:28;7.40;;;1.20;;
40691;SDS011;26377;53.344;14.886;2022-10-16T15:28:57;2.58;;;1.10;;
40691;SDS011;26377;53.344;14.886;2022-10-16T15:31:24;7.10;;;1.35;;
40691;SDS011;26377;53.344;14.886;2022-10-16T15:33:52;3.70;;;1.22;;
40691;SDS011;26377;53.344;14.886;2022-10-16T15:36:25;11.95;;;1.22;;
40691;SDS011;26377;53.344;14.886;2022-10-16T15:38:56;7.87;;;2.65;;
40691;SDS011;26377;53.344;14.886;2022-10-16T15:41:24;3.98;;;1.50;;
40691;SDS011;26377;53.344;14.886;2022-10-16T15:43:52;6.95;;;1.72;;
40691;SDS011;26377;53.344;14.886;2022-10-16T15:46:22;3.70;;;1.45;;
40691;SDS011;26377;53.344;14.886;2022-10-16T15:51:25;8.43;;;2.25;;
40691;SDS011;26377;53.344;14.886;2022-10-16T15:53:56;5.47;;;1.80;;
40691;SDS011;26377;53.344;14.886;2022-10-16T15:56:23;7.30;;;1.77;;
40691;SDS011;26377;53.344;14.886;2022-10-16T15:58:53;7.20;;;1.60;;
40691;SDS011;26377;53.344;14.886;2022-10-16T16:01:21;10.35;;;1.90;;
40691;SDS011;26377;53.344;14.886;2022-10-16T16:03:53;5.33;;;1.70;;
40691;SDS011;26377;53.344;14.886;2022-10-16T16:06:25;4.47;;;1.50;;
40691;SDS011;26377;53.344;14.886;2022-10-16T16:08:55;12.07;;;1.35;;
40691;SDS011;26377;53.344;14.886;2022-10-16T16:11:23;4.62;;;1.65;;
40691;SDS011;26377;53.344;14.886;2022-10-16T16:13:50;3.95;;;1.70;;
40691;SDS011;26377;53.344;14.886;2022-10-16T16:16:19;5.33;;;1.80;;
40691;SDS011;26377;53.344;14.886;2022-10-16T16:18:47;4.15;;;1.25;;
40691;SDS011;26377;53.344;14.886;2022-10-16T16:21:16;3.98;;;1.57;;
40691;SDS011;26377;53.344;14.886;2022-10-16T16:23:43;6.12;;;1.72;;
40691;SDS011;26377;53.344;14.886;2022-10-16T16:26:23;5.10;;;1.85;;
40691;SDS011;26377;53.344;14.886;2022-10-16T16:28:54;6.40;;;2.02;;
40691;SDS011;26377;53.344;14.886;2022-10-16T16:31:25;5.30;;;2.30;;
40691;SDS011;26377;53.344;14.886;2022-10-16T16:33:55;11.45;;;2.87;;
40691;SDS011;26377;53.344;14.886;2022-10-16T16:36:24;8.70;;;2.10;;
40691;SDS011;26377;53.344;14.886;2022-10-16T16:38:52;4.62;;;1.50;;
40691;SDS011;26377;53.344;14.886;2022-10-16T16:41:20;4.37;;;1.60;;
40691;SDS011;26377;53.344;14.886;2022-10-16T16:43:51;2.80;;;1.70;;
40691;SDS011;26377;53.344;14.886;2022-10-16T16:46:19;6.20;;;1.40;;
40691;SDS011;26377;53.344;14.886;2022-10-16T16:48:48;3.22;;;1.10;;
40691;SDS011;26377;53.344;14.886;2022-10-16T16:51:22;2.83;;;1.30;;
40691;SDS011;26377;53.344;14.886;2022-10-16T16:53:50;6.67;;;1.45;;
40691;SDS011;26377;53.344;14.886;2022-10-16T16:56:20;5.62;;;1.90;;
40691;SDS011;26377;53.344;14.886;2022-10-16T16:58:50;16.67;;;2.25;;
40691;SDS011;26377;53.344;14.886;2022-10-16T17:01:25;4.85;;;1.72;;
40691;SDS011;26377;53.344;14.886;2022-10-16T17:03:54;3.12;;;1.50;;
40691;SDS011;26377;53.344;14.886;2022-10-16T17:06:24;5.22;;;2.17;;
40691;SDS011;26377;53.344;14.886;2022-10-16T17:08:56;8.25;;;1.90;;
40691;SDS011;26377;53.344;14.886;2022-10-16T17:11:24;7.78;;;2.20;;
40691;SDS011;26377;53.344;14.886;2022-10-16T17:13:58;5.37;;;1.50;;
40691;SDS011;26377;53.344;14.886;2022-10-16T17:16:33;7.70;;;2.10;;
40691;SDS011;26377;53.344;14.886;2022-10-16T17:19:09;4.90;;;2.05;;
40691;SDS011;26377;53.344;14.886;2022-10-16T17:21:42;8.00;;;2.10;;
40691;SDS011;26377;53.344;14.886;2022-10-16T17:24:13;8.43;;;2.00;;
40691;SDS011;26377;53.344;14.886;2022-10-16T17:26:46;5.25;;;2.50;;
40691;SDS011;26377;53.344;14.886;2022-10-16T17:29:16;4.00;;;1.92;;
40691;SDS011;26377;53.344;14.886;2022-10-16T17:31:44;8.00;;;2.95;;
40691;SDS011;26377;53.344;14.886;2022-10-16T17:34:16;2.85;;;2.05;;
40691;SDS011;26377;53.344;14.886;2022-10-16T17:36:46;5.92;;;2.60;;
40691;SDS011;26377;53.344;14.886;2022-10-16T17:39:14;7.83;;;2.87;;
40691;SDS011;26377;53.344;14.886;2022-10-16T17:41:45;4.83;;;2.65;;